sensor_id;sensor_type;location;lat;lon;timestamp;P1;durP1;ratioP1;P2;durP2;ratioP2
75935;SDS011;64614;32.062;34.834;2023-04-03T00:01:34;4.20;;;2.17;;
75935;SDS011;64614;32.062;34.834;2023-04-03T00:04:01;4.72;;;2.53;;
75935;SDS011;64614;32.062;34.834;2023-04-03T00:06:27;6.10;;;2.55;;
75935;SDS011;64614;32.062;34.834;2023-04-03T00:08:53;4.55;;;2.30;;
75935;SDS011;64614;32.062;34.834;2023-04-03T00:11:18;3.78;;;2.42;;
75935;SDS011;64614;32.062;34.834;2023-04-03T00:13:45;5.15;;;2.22;;
75935;SDS011;64614;32.062;34.834;2023-04-03T00:16:11;5.20;;;2.40;;
75935;SDS011;64614;32.062;34.834;2023-04-03T00:18:38;5.03;;;2.35;;
75935;SDS011;64614;32.062;34.834;2023-04-03T00:21:04;5.63;;;2.50;;
75935;SDS011;64614;32.062;34.834;2023-04-03T00:23:31;4.68;;;2.33;;
75935;SDS011;64614;32.062;34.834;2023-04-03T00:25:57;6.72;;;2.50;;
75935;SDS011;64614;32.062;34.834;2023-04-03T00:28:22;5.10;;;2.63;;
75935;SDS011;64614;32.062;34.834;2023-04-03T00:30:48;5.88;;;2.40;;
75935;SDS011;64614;32.062;34.834;2023-04-03T00:33:15;5.90;;;2.70;;
75935;SDS011;64614;32.062;34.834;2023-04-03T00:35:41;5.78;;;2.30;;
75935;SDS011;64614;32.062;34.834;2023-04-03T00:38:07;4.85;;;2.50;;
75935;SDS011;64614;32.062;34.834;2023-04-03T00:40:34;5.53;;;2.75;;
75935;SDS011;64614;32.062;34.834;2023-04-03T00:43:05;5.07;;;2.53;;
75935;SDS011;64614;32.062;34.834;2023-04-03T00:45:40;4.63;;;2.40;;
75935;SDS011;64614;32.062;34.834;2023-04-03T00:48:10;5.25;;;2.47;;
75935;SDS011;64614;32.062;34.834;2023-04-03T00:50:39;6.35;;;2.50;;
75935;SDS011;64614;32.062;34.834;2023-04-03T00:53:07;5.32;;;2.50;;
75935;SDS011;64614;32.062;34.834;2023-04-03T00:55:37;4.90;;;2.55;;
75935;SDS011;64614;32.062;34.834;2023-04-03T00:58:05;6.20;;;2.50;;
75935;SDS011;64614;32.062;34.834;2023-04-03T01:00:32;5.15;;;2.58;;
75935;SDS011;64614;32.062;34.834;2023-04-03T01:03:00;5.25;;;2.60;;
75935;SDS011;64614;32.062;34.834;2023-04-03T01:05:25;6.18;;;2.55;;
75935;SDS011;64614;32.062;34.834;2023-04-03T01:07:51;6.25;;;2.53;;
75935;SDS011;64614;32.062;34.834;2023-04-03T01:10:18;6.30;;;2.45;;
75935;SDS011;64614;32.062;34.834;2023-04-03T01:12:46;5.90;;;2.72;;
75935;SDS011;64614;32.062;34.834;2023-04-03T01:15:24;5.55;;;2.67;;
75935;SDS011;64614;32.062;34.834;2023-04-03T01:17:55;5.00;;;2.47;;
75935;SDS011;64614;32.062;34.834;2023-04-03T01:25:28;4.78;;;2.63;;
75935;SDS011;64614;32.062;34.834;2023-04-03T01:27:54;6.47;;;2.72;;
75935;SDS011;64614;32.062;34.834;2023-04-03T01:30:21;5.93;;;2.95;;
75935;SDS011;64614;32.062;34.834;2023-04-03T01:32:53;8.07;;;2.97;;
75935;SDS011;64614;32.062;34.834;2023-04-03T01:35:18;6.35;;;2.90;;
75935;SDS011;64614;32.062;34.834;2023-04-03T01:37:45;5.25;;;3.00;;
75935;SDS011;64614;32.062;34.834;2023-04-03T01:40:11;5.40;;;2.92;;
75935;SDS011;64614;32.062;34.834;2023-04-03T01:42:36;6.03;;;3.17;;
75935;SDS011;64614;32.062;34.834;2023-04-03T01:45:02;6.00;;;3.13;;
75935;SDS011;64614;32.062;34.834;2023-04-03T01:47:28;6.85;;;3.00;;
75935;SDS011;64614;32.062;34.834;2023-04-03T01:49:54;6.65;;;3.20;;
75935;SDS011;64614;32.062;34.834;2023-04-03T01:52:19;6.32;;;3.25;;
75935;SDS011;64614;32.062;34.834;2023-04-03T01:54:45;5.30;;;2.72;;
75935;SDS011;64614;32.062;34.834;2023-04-03T01:57:10;7.05;;;3.10;;
75935;SDS011;64614;32.062;34.834;2023-04-03T01:59:38;6.88;;;3.40;;
75935;SDS011;64614;32.062;34.834;2023-04-03T02:02:03;6.22;;;3.22;;
75935;SDS011;64614;32.062;34.834;2023-04-03T02:04:29;6.25;;;3.25;;
75935;SDS011;64614;32.062;34.834;2023-04-03T02:06:55;5.75;;;3.17;;
75935;SDS011;64614;32.062;34.834;2023-04-03T02:09:20;6.55;;;3.67;;
75935;SDS011;64614;32.062;34.834;2023-04-03T02:11:46;7.00;;;3.30;;
75935;SDS011;64614;32.062;34.834;2023-04-03T02:14:12;6.97;;;3.40;;
75935;SDS011;64614;32.062;34.834;2023-04-03T02:16:37;6.75;;;3.47;;
75935;SDS011;64614;32.062;34.834;2023-04-03T02:19:03;6.63;;;3.75;;
75935;SDS011;64614;32.062;34.834;2023-04-03T02:21:30;8.98;;;3.80;;
75935;SDS011;64614;32.062;34.834;2023-04-03T02:23:56;7.65;;;3.80;;
75935;SDS011;64614;32.062;34.834;2023-04-03T02:26:21;7.22;;;3.20;;
75935;SDS011;64614;32.062;34.834;2023-04-03T02:28:47;6.82;;;3.40;;
75935;SDS011;64614;32.062;34.834;2023-04-03T02:31:13;7.15;;;3.67;;
75935;SDS011;64614;32.062;34.834;2023-04-03T02:33:39;7.18;;;3.70;;
75935;SDS011;64614;32.062;34.834;2023-04-03T02:36:05;6.88;;;3.85;;
75935;SDS011;64614;32.062;34.834;2023-04-03T02:38:32;8.60;;;3.70;;
75935;SDS011;64614;32.062;34.834;2023-04-03T02:41:01;7.53;;;3.65;;
75935;SDS011;64614;32.062;34.834;2023-04-03T02:43:31;6.47;;;3.65;;
75935;SDS011;64614;32.062;34.834;2023-04-03T02:45:57;8.45;;;3.88;;
75935;SDS011;64614;32.062;34.834;2023-04-03T02:48:23;8.02;;;4.03;;
75935;SDS011;64614;32.062;34.834;2023-04-03T02:50:49;9.40;;;4.45;;
75935;SDS011;64614;32.062;34.834;2023-04-03T02:53:15;7.93;;;3.88;;
75935;SDS011;64614;32.062;34.834;2023-04-03T02:55:41;6.95;;;3.83;;
75935;SDS011;64614;32.062;34.834;2023-04-03T02:58:07;7.25;;;4.13;;
75935;SDS011;64614;32.062;34.834;2023-04-03T03:00:33;9.63;;;4.30;;
75935;SDS011;64614;32.062;34.834;2023-04-03T03:02:59;7.50;;;3.78;;
75935;SDS011;64614;32.062;34.834;2023-04-03T03:05:25;8.77;;;4.40;;
75935;SDS011;64614;32.062;34.834;2023-04-03T03:07:51;6.85;;;3.78;;
75935;SDS011;64614;32.062;34.834;2023-04-03T03:10:17;7.55;;;3.92;;
75935;SDS011;64614;32.062;34.834;2023-04-03T03:12:43;7.95;;;4.03;;
75935;SDS011;64614;32.062;34.834;2023-04-03T03:15:08;9.20;;;4.53;;
75935;SDS011;64614;32.062;34.834;2023-04-03T03:17:35;9.38;;;4.50;;
75935;SDS011;64614;32.062;34.834;2023-04-03T03:22:36;9.77;;;4.32;;
75935;SDS011;64614;32.062;34.834;2023-04-03T03:25:02;8.35;;;4.22;;
75935;SDS011;64614;32.062;34.834;2023-04-03T03:27:28;8.52;;;4.43;;
75935;SDS011;64614;32.062;34.834;2023-04-03T03:29:54;8.88;;;4.40;;
75935;SDS011;64614;32.062;34.834;2023-04-03T03:32:20;8.27;;;4.43;;
75935;SDS011;64614;32.062;34.834;2023-04-03T03:34:45;9.57;;;4.68;;
75935;SDS011;64614;32.062;34.834;2023-04-03T03:37:11;9.75;;;4.55;;
75935;SDS011;64614;32.062;34.834;2023-04-03T03:39:37;9.00;;;4.45;;
75935;SDS011;64614;32.062;34.834;2023-04-03T03:42:02;10.13;;;4.53;;
75935;SDS011;64614;32.062;34.834;2023-04-03T03:44:28;9.63;;;4.47;;
75935;SDS011;64614;32.062;34.834;2023-04-03T03:46:55;8.48;;;4.30;;
75935;SDS011;64614;32.062;34.834;2023-04-03T03:49:21;9.30;;;4.38;;
75935;SDS011;64614;32.062;34.834;2023-04-03T03:51:47;8.05;;;4.40;;
75935;SDS011;64614;32.062;34.834;2023-04-03T03:54:13;9.00;;;4.30;;
75935;SDS011;64614;32.062;34.834;2023-04-03T03:56:39;12.20;;;4.70;;
75935;SDS011;64614;32.062;34.834;2023-04-03T03:59:05;9.82;;;4.40;;
75935;SDS011;64614;32.062;34.834;2023-04-03T04:01:31;10.32;;;4.70;;
75935;SDS011;64614;32.062;34.834;2023-04-03T04:03:57;9.00;;;4.53;;
75935;SDS011;64614;32.062;34.834;2023-04-03T04:06:23;10.52;;;4.80;;
75935;SDS011;64614;32.062;34.834;2023-04-03T04:08:49;8.60;;;4.55;;
75935;SDS011;64614;32.062;34.834;2023-04-03T04:11:15;9.45;;;4.15;;
75935;SDS011;64614;32.062;34.834;2023-04-03T04:13:40;8.70;;;4.60;;
75935;SDS011;64614;32.062;34.834;2023-04-03T04:16:06;9.45;;;4.70;;
75935;SDS011;64614;32.062;34.834;2023-04-03T04:18:33;9.43;;;4.75;;
75935;SDS011;64614;32.062;34.834;2023-04-03T04:20:59;8.75;;;4.72;;
75935;SDS011;64614;32.062;34.834;2023-04-03T04:23:24;11.38;;;4.25;;
75935;SDS011;64614;32.062;34.834;2023-04-03T04:25:50;8.00;;;4.35;;
75935;SDS011;64614;32.062;34.834;2023-04-03T04:28:16;8.63;;;4.40;;
75935;SDS011;64614;32.062;34.834;2023-04-03T04:30:42;8.65;;;5.00;;
75935;SDS011;64614;32.062;34.834;2023-04-03T04:33:08;10.73;;;5.03;;
75935;SDS011;64614;32.062;34.834;2023-04-03T04:35:50;13.45;;;5.32;;
75935;SDS011;64614;32.062;34.834;2023-04-03T04:38:16;10.55;;;5.07;;
75935;SDS011;64614;32.062;34.834;2023-04-03T04:40:42;13.15;;;5.38;;
75935;SDS011;64614;32.062;34.834;2023-04-03T04:43:08;14.15;;;6.25;;
75935;SDS011;64614;32.062;34.834;2023-04-03T04:45:35;21.83;;;8.55;;
75935;SDS011;64614;32.062;34.834;2023-04-03T04:48:01;23.75;;;10.73;;
75935;SDS011;64614;32.062;34.834;2023-04-03T04:50:27;23.00;;;11.13;;
75935;SDS011;64614;32.062;34.834;2023-04-03T04:52:53;27.83;;;11.30;;
75935;SDS011;64614;32.062;34.834;2023-04-03T04:57:53;27.52;;;11.77;;
75935;SDS011;64614;32.062;34.834;2023-04-03T05:00:29;25.55;;;11.85;;
75935;SDS011;64614;32.062;34.834;2023-04-03T05:02:57;24.42;;;12.15;;
75935;SDS011;64614;32.062;34.834;2023-04-03T05:05:25;25.02;;;11.43;;
75935;SDS011;64614;32.062;34.834;2023-04-03T05:07:51;24.48;;;11.60;;
75935;SDS011;64614;32.062;34.834;2023-04-03T05:10:26;28.85;;;14.48;;
75935;SDS011;64614;32.062;34.834;2023-04-03T05:12:51;40.50;;;24.15;;
75935;SDS011;64614;32.062;34.834;2023-04-03T05:15:17;38.70;;;22.35;;
75935;SDS011;64614;32.062;34.834;2023-04-03T05:17:45;39.40;;;21.85;;
75935;SDS011;64614;32.062;34.834;2023-04-03T05:20:11;35.33;;;20.63;;
75935;SDS011;64614;32.062;34.834;2023-04-03T05:22:37;35.13;;;17.88;;
75935;SDS011;64614;32.062;34.834;2023-04-03T05:25:03;30.35;;;15.15;;
75935;SDS011;64614;32.062;34.834;2023-04-03T05:27:29;31.77;;;13.95;;
75935;SDS011;64614;32.062;34.834;2023-04-03T05:29:55;41.55;;;21.40;;
75935;SDS011;64614;32.062;34.834;2023-04-03T05:32:25;47.40;;;22.75;;
75935;SDS011;64614;32.062;34.834;2023-04-03T05:34:53;42.08;;;22.08;;
75935;SDS011;64614;32.062;34.834;2023-04-03T05:37:19;45.28;;;25.00;;
75935;SDS011;64614;32.062;34.834;2023-04-03T05:39:45;43.53;;;22.33;;
75935;SDS011;64614;32.062;34.834;2023-04-03T05:42:11;35.45;;;21.08;;
75935;SDS011;64614;32.062;34.834;2023-04-03T05:44:38;35.35;;;20.77;;
75935;SDS011;64614;32.062;34.834;2023-04-03T05:47:04;42.30;;;19.25;;
75935;SDS011;64614;32.062;34.834;2023-04-03T05:49:30;34.95;;;19.25;;
75935;SDS011;64614;32.062;34.834;2023-04-03T05:51:56;38.58;;;19.13;;
75935;SDS011;64614;32.062;34.834;2023-04-03T05:54:23;39.28;;;19.73;;
75935;SDS011;64614;32.062;34.834;2023-04-03T05:56:53;32.17;;;16.98;;
75935;SDS011;64614;32.062;34.834;2023-04-03T05:59:20;34.08;;;16.77;;
75935;SDS011;64614;32.062;34.834;2023-04-03T06:01:46;29.60;;;16.70;;
75935;SDS011;64614;32.062;34.834;2023-04-03T06:04:12;30.58;;;15.82;;
75935;SDS011;64614;32.062;34.834;2023-04-03T06:06:57;29.15;;;16.52;;
75935;SDS011;64614;32.062;34.834;2023-04-03T06:09:24;32.63;;;15.43;;
75935;SDS011;64614;32.062;34.834;2023-04-03T06:11:52;29.40;;;15.70;;
75935;SDS011;64614;32.062;34.834;2023-04-03T06:14:18;30.17;;;15.88;;
75935;SDS011;64614;32.062;34.834;2023-04-03T06:16:43;31.05;;;15.48;;
75935;SDS011;64614;32.062;34.834;2023-04-03T06:19:10;27.08;;;14.70;;
75935;SDS011;64614;32.062;34.834;2023-04-03T06:21:37;26.85;;;14.93;;
75935;SDS011;64614;32.062;34.834;2023-04-03T06:24:06;26.02;;;13.45;;
75935;SDS011;64614;32.062;34.834;2023-04-03T06:26:33;26.00;;;15.30;;
75935;SDS011;64614;32.062;34.834;2023-04-03T06:28:59;26.83;;;14.02;;
75935;SDS011;64614;32.062;34.834;2023-04-03T06:31:25;20.90;;;12.10;;
75935;SDS011;64614;32.062;34.834;2023-04-03T06:33:51;26.42;;;12.43;;
75935;SDS011;64614;32.062;34.834;2023-04-03T06:36:17;25.23;;;13.57;;
75935;SDS011;64614;32.062;34.834;2023-04-03T06:38:46;22.85;;;12.07;;
75935;SDS011;64614;32.062;34.834;2023-04-03T06:41:12;20.42;;;12.27;;
75935;SDS011;64614;32.062;34.834;2023-04-03T06:43:38;21.17;;;12.55;;
75935;SDS011;64614;32.062;34.834;2023-04-03T06:46:03;20.65;;;11.85;;
75935;SDS011;64614;32.062;34.834;2023-04-03T06:48:30;21.15;;;11.55;;
75935;SDS011;64614;32.062;34.834;2023-04-03T06:50:56;20.00;;;12.32;;
75935;SDS011;64614;32.062;34.834;2023-04-03T06:53:21;19.52;;;12.15;;
75935;SDS011;64614;32.062;34.834;2023-04-03T06:55:47;19.75;;;11.77;;
75935;SDS011;64614;32.062;34.834;2023-04-03T06:58:13;19.60;;;11.93;;
75935;SDS011;64614;32.062;34.834;2023-04-03T07:00:40;19.35;;;11.10;;
75935;SDS011;64614;32.062;34.834;2023-04-03T07:03:07;19.95;;;10.50;;
75935;SDS011;64614;32.062;34.834;2023-04-03T07:05:33;18.92;;;11.40;;
75935;SDS011;64614;32.062;34.834;2023-04-03T07:07:58;19.55;;;9.63;;
75935;SDS011;64614;32.062;34.834;2023-04-03T07:10:24;17.73;;;10.07;;
75935;SDS011;64614;32.062;34.834;2023-04-03T07:12:50;19.80;;;10.15;;
75935;SDS011;64614;32.062;34.834;2023-04-03T07:15:16;17.63;;;9.25;;
75935;SDS011;64614;32.062;34.834;2023-04-03T07:17:42;16.42;;;8.93;;
75935;SDS011;64614;32.062;34.834;2023-04-03T07:20:08;17.60;;;10.38;;
75935;SDS011;64614;32.062;34.834;2023-04-03T07:22:34;16.85;;;10.48;;
75935;SDS011;64614;32.062;34.834;2023-04-03T07:25:00;16.70;;;9.85;;
75935;SDS011;64614;32.062;34.834;2023-04-03T07:27:25;16.80;;;9.52;;
75935;SDS011;64614;32.062;34.834;2023-04-03T07:29:52;18.85;;;8.68;;
75935;SDS011;64614;32.062;34.834;2023-04-03T07:32:17;17.25;;;9.70;;
75935;SDS011;64614;32.062;34.834;2023-04-03T07:34:43;16.95;;;9.27;;
75935;SDS011;64614;32.062;34.834;2023-04-03T07:37:09;16.65;;;9.45;;
75935;SDS011;64614;32.062;34.834;2023-04-03T07:39:35;16.67;;;8.90;;
75935;SDS011;64614;32.062;34.834;2023-04-03T07:42:01;16.55;;;9.00;;
75935;SDS011;64614;32.062;34.834;2023-04-03T07:44:27;17.00;;;9.18;;
75935;SDS011;64614;32.062;34.834;2023-04-03T07:46:53;15.70;;;8.88;;
75935;SDS011;64614;32.062;34.834;2023-04-03T07:49:21;14.88;;;8.07;;
75935;SDS011;64614;32.062;34.834;2023-04-03T07:51:49;14.32;;;8.23;;
75935;SDS011;64614;32.062;34.834;2023-04-03T07:54:15;13.35;;;7.55;;
75935;SDS011;64614;32.062;34.834;2023-04-03T07:56:40;14.48;;;8.05;;
75935;SDS011;64614;32.062;34.834;2023-04-03T07:59:08;16.73;;;8.25;;
75935;SDS011;64614;32.062;34.834;2023-04-03T08:01:36;15.05;;;7.47;;
75935;SDS011;64614;32.062;34.834;2023-04-03T08:04:01;13.73;;;7.70;;
75935;SDS011;64614;32.062;34.834;2023-04-03T08:06:27;13.30;;;7.57;;
75935;SDS011;64614;32.062;34.834;2023-04-03T08:08:55;14.45;;;7.15;;
75935;SDS011;64614;32.062;34.834;2023-04-03T08:11:21;13.82;;;8.00;;
75935;SDS011;64614;32.062;34.834;2023-04-03T08:13:48;14.15;;;8.10;;
75935;SDS011;64614;32.062;34.834;2023-04-03T08:16:18;13.38;;;7.72;;
75935;SDS011;64614;32.062;34.834;2023-04-03T08:18:46;15.18;;;7.55;;
75935;SDS011;64614;32.062;34.834;2023-04-03T08:21:11;13.45;;;7.10;;
75935;SDS011;64614;32.062;34.834;2023-04-03T08:23:38;15.02;;;7.10;;
75935;SDS011;64614;32.062;34.834;2023-04-03T08:26:05;15.50;;;7.43;;
75935;SDS011;64614;32.062;34.834;2023-04-03T08:28:32;13.55;;;6.82;;
75935;SDS011;64614;32.062;34.834;2023-04-03T08:31:01;13.80;;;7.45;;
75935;SDS011;64614;32.062;34.834;2023-04-03T08:33:29;14.52;;;7.22;;
75935;SDS011;64614;32.062;34.834;2023-04-03T08:35:55;12.65;;;6.20;;
75935;SDS011;64614;32.062;34.834;2023-04-03T08:38:21;12.75;;;6.90;;
75935;SDS011;64614;32.062;34.834;2023-04-03T08:40:46;12.88;;;6.72;;
75935;SDS011;64614;32.062;34.834;2023-04-03T08:43:24;13.00;;;6.25;;
75935;SDS011;64614;32.062;34.834;2023-04-03T08:46:01;14.60;;;5.93;;
75935;SDS011;64614;32.062;34.834;2023-04-03T08:48:33;13.18;;;6.32;;
75935;SDS011;64614;32.062;34.834;2023-04-03T08:51:08;11.60;;;6.80;;
75935;SDS011;64614;32.062;34.834;2023-04-03T08:54:19;12.35;;;5.82;;
75935;SDS011;64614;32.062;34.834;2023-04-03T08:56:46;11.35;;;5.95;;
75935;SDS011;64614;32.062;34.834;2023-04-03T08:59:12;10.00;;;5.50;;
75935;SDS011;64614;32.062;34.834;2023-04-03T09:01:42;11.85;;;5.95;;
75935;SDS011;64614;32.062;34.834;2023-04-03T09:04:13;10.35;;;5.90;;
75935;SDS011;64614;32.062;34.834;2023-04-03T09:06:43;11.52;;;5.53;;
75935;SDS011;64614;32.062;34.834;2023-04-03T09:09:15;9.95;;;5.32;;
75935;SDS011;64614;32.062;34.834;2023-04-03T09:23:50;9.55;;;4.88;;
75935;SDS011;64614;32.062;34.834;2023-04-03T09:26:24;9.18;;;4.63;;
75935;SDS011;64614;32.062;34.834;2023-04-03T09:28:55;9.85;;;4.93;;
75935;SDS011;64614;32.062;34.834;2023-04-03T09:31:43;9.88;;;4.53;;
75935;SDS011;64614;32.062;34.834;2023-04-03T09:34:17;8.43;;;4.47;;
75935;SDS011;64614;32.062;34.834;2023-04-03T09:36:49;8.70;;;4.53;;
75935;SDS011;64614;32.062;34.834;2023-04-03T09:39:20;9.90;;;4.47;;
75935;SDS011;64614;32.062;34.834;2023-04-03T09:41:55;8.90;;;4.43;;
75935;SDS011;64614;32.062;34.834;2023-04-03T09:44:30;9.45;;;4.65;;
75935;SDS011;64614;32.062;34.834;2023-04-03T09:46:58;8.45;;;4.05;;
75935;SDS011;64614;32.062;34.834;2023-04-03T09:49:25;9.98;;;3.90;;
75935;SDS011;64614;32.062;34.834;2023-04-03T09:51:53;8.77;;;4.20;;
75935;SDS011;64614;32.062;34.834;2023-04-03T09:54:33;11.52;;;4.13;;
75935;SDS011;64614;32.062;34.834;2023-04-03T09:59:33;11.80;;;3.90;;
75935;SDS011;64614;32.062;34.834;2023-04-03T10:04:54;11.25;;;3.90;;
75935;SDS011;64614;32.062;34.834;2023-04-03T10:07:37;9.77;;;3.78;;
75935;SDS011;64614;32.062;34.834;2023-04-03T10:10:16;7.82;;;2.90;;
75935;SDS011;64614;32.062;34.834;2023-04-03T10:12:45;7.43;;;3.42;;
75935;SDS011;64614;32.062;34.834;2023-04-03T10:15:15;9.05;;;3.40;;
75935;SDS011;64614;32.062;34.834;2023-04-03T10:18:02;8.35;;;3.30;;
75935;SDS011;64614;32.062;34.834;2023-04-03T10:20:45;7.43;;;2.78;;
75935;SDS011;64614;32.062;34.834;2023-04-03T10:23:18;7.22;;;2.90;;
75935;SDS011;64614;32.062;34.834;2023-04-03T10:28:20;5.93;;;2.90;;
75935;SDS011;64614;32.062;34.834;2023-04-03T10:34:10;7.28;;;2.75;;
75935;SDS011;64614;32.062;34.834;2023-04-03T10:37:00;6.28;;;2.70;;
75935;SDS011;64614;32.062;34.834;2023-04-03T10:45:08;5.43;;;2.53;;
75935;SDS011;64614;32.062;34.834;2023-04-03T10:48:14;7.38;;;2.40;;
75935;SDS011;64614;32.062;34.834;2023-04-03T10:56:57;9.65;;;3.33;;
75935;SDS011;64614;32.062;34.834;2023-04-03T11:04:53;8.32;;;3.10;;
75935;SDS011;64614;32.062;34.834;2023-04-03T11:07:25;8.40;;;3.30;;
75935;SDS011;64614;32.062;34.834;2023-04-03T11:09:57;6.50;;;2.72;;
75935;SDS011;64614;32.062;34.834;2023-04-03T11:12:30;6.20;;;2.80;;
75935;SDS011;64614;32.062;34.834;2023-04-03T11:15:03;6.78;;;2.60;;
75935;SDS011;64614;32.062;34.834;2023-04-03T11:17:35;8.18;;;2.55;;
75935;SDS011;64614;32.062;34.834;2023-04-03T11:20:16;9.25;;;2.75;;
75935;SDS011;64614;32.062;34.834;2023-04-03T11:22:45;7.50;;;2.60;;
75935;SDS011;64614;32.062;34.834;2023-04-03T11:25:22;6.55;;;2.47;;
75935;SDS011;64614;32.062;34.834;2023-04-03T11:38:43;6.07;;;2.30;;
75935;SDS011;64614;32.062;34.834;2023-04-03T11:41:11;4.40;;;2.00;;
75935;SDS011;64614;32.062;34.834;2023-04-03T11:43:42;5.65;;;2.10;;
75935;SDS011;64614;32.062;34.834;2023-04-03T11:49:50;6.47;;;2.28;;
75935;SDS011;64614;32.062;34.834;2023-04-03T12:11:19;4.82;;;2.25;;
75935;SDS011;64614;32.062;34.834;2023-04-03T12:22:05;3.53;;;1.70;;
75935;SDS011;64614;32.062;34.834;2023-04-03T12:24:36;2.78;;;1.50;;
75935;SDS011;64614;32.062;34.834;2023-04-03T12:32:35;4.55;;;2.20;;
75935;SDS011;64614;32.062;34.834;2023-04-03T12:43:09;4.10;;;1.80;;
75935;SDS011;64614;32.062;34.834;2023-04-03T12:48:37;5.63;;;2.33;;
75935;SDS011;64614;32.062;34.834;2023-04-03T12:51:18;6.88;;;2.35;;
75935;SDS011;64614;32.062;34.834;2023-04-03T12:53:48;17.83;;;6.43;;
75935;SDS011;64614;32.062;34.834;2023-04-03T12:56:22;15.23;;;5.50;;
75935;SDS011;64614;32.062;34.834;2023-04-03T12:59:12;16.85;;;6.10;;
75935;SDS011;64614;32.062;34.834;2023-04-03T13:01:40;14.68;;;5.97;;
75935;SDS011;64614;32.062;34.834;2023-04-03T13:04:06;15.23;;;6.20;;
75935;SDS011;64614;32.062;34.834;2023-04-03T13:06:34;14.02;;;5.85;;
75935;SDS011;64614;32.062;34.834;2023-04-03T13:09:06;16.60;;;5.55;;
75935;SDS011;64614;32.062;34.834;2023-04-03T13:11:46;12.00;;;5.00;;
75935;SDS011;64614;32.062;34.834;2023-04-03T13:14:21;11.65;;;4.70;;
75935;SDS011;64614;32.062;34.834;2023-04-03T13:19:25;10.65;;;4.85;;
75935;SDS011;64614;32.062;34.834;2023-04-03T13:22:35;12.00;;;4.13;;
75935;SDS011;64614;32.062;34.834;2023-04-03T13:25:05;7.38;;;3.53;;
75935;SDS011;64614;32.062;34.834;2023-04-03T13:27:34;9.02;;;3.60;;
75935;SDS011;64614;32.062;34.834;2023-04-03T13:30:00;7.78;;;3.17;;
75935;SDS011;64614;32.062;34.834;2023-04-03T13:32:28;6.97;;;3.20;;
75935;SDS011;64614;32.062;34.834;2023-04-03T13:34:57;7.18;;;3.25;;
75935;SDS011;64614;32.062;34.834;2023-04-03T13:37:30;8.60;;;3.08;;
75935;SDS011;64614;32.062;34.834;2023-04-03T13:42:31;6.03;;;2.55;;
75935;SDS011;64614;32.062;34.834;2023-04-03T13:47:45;5.47;;;2.55;;
75935;SDS011;64614;32.062;34.834;2023-04-03T13:50:14;6.22;;;2.47;;
75935;SDS011;64614;32.062;34.834;2023-04-03T13:58:29;5.35;;;2.70;;
75935;SDS011;64614;32.062;34.834;2023-04-03T14:03:51;3.85;;;1.98;;
75935;SDS011;64614;32.062;34.834;2023-04-03T14:06:17;5.10;;;2.25;;
75935;SDS011;64614;32.062;34.834;2023-04-03T14:08:45;5.10;;;2.25;;
75935;SDS011;64614;32.062;34.834;2023-04-03T14:11:22;5.38;;;2.38;;
75935;SDS011;64614;32.062;34.834;2023-04-03T14:13:52;5.43;;;2.30;;
75935;SDS011;64614;32.062;34.834;2023-04-03T14:18:46;5.38;;;2.20;;
75935;SDS011;64614;32.062;34.834;2023-04-03T14:21:14;5.70;;;2.13;;
75935;SDS011;64614;32.062;34.834;2023-04-03T14:23:42;5.55;;;2.30;;
75935;SDS011;64614;32.062;34.834;2023-04-03T14:26:18;4.93;;;2.20;;
75935;SDS011;64614;32.062;34.834;2023-04-03T14:28:51;6.47;;;2.10;;
75935;SDS011;64614;32.062;34.834;2023-04-03T14:31:18;5.18;;;2.22;;
75935;SDS011;64614;32.062;34.834;2023-04-03T14:33:46;5.05;;;2.38;;
75935;SDS011;64614;32.062;34.834;2023-04-03T14:36:16;5.38;;;2.50;;
75935;SDS011;64614;32.062;34.834;2023-04-03T14:38:48;4.53;;;2.20;;
75935;SDS011;64614;32.062;34.834;2023-04-03T14:41:17;4.00;;;1.95;;
75935;SDS011;64614;32.062;34.834;2023-04-03T14:43:45;6.20;;;2.20;;
75935;SDS011;64614;32.062;34.834;2023-04-03T14:46:31;5.85;;;2.30;;
75935;SDS011;64614;32.062;34.834;2023-04-03T14:48:59;4.43;;;1.90;;
75935;SDS011;64614;32.062;34.834;2023-04-03T14:51:26;5.47;;;2.33;;
75935;SDS011;64614;32.062;34.834;2023-04-03T14:53:53;4.07;;;1.92;;
75935;SDS011;64614;32.062;34.834;2023-04-03T14:58:47;4.55;;;2.10;;
75935;SDS011;64614;32.062;34.834;2023-04-03T15:01:16;5.63;;;2.13;;
75935;SDS011;64614;32.062;34.834;2023-04-03T15:03:43;5.40;;;2.00;;
75935;SDS011;64614;32.062;34.834;2023-04-03T15:06:09;6.32;;;2.20;;
75935;SDS011;64614;32.062;34.834;2023-04-03T15:08:37;4.78;;;1.95;;
75935;SDS011;64614;32.062;34.834;2023-04-03T15:11:02;4.20;;;2.03;;
75935;SDS011;64614;32.062;34.834;2023-04-03T15:13:28;4.72;;;2.03;;
75935;SDS011;64614;32.062;34.834;2023-04-03T15:15:54;3.65;;;1.73;;
75935;SDS011;64614;32.062;34.834;2023-04-03T15:18:22;5.35;;;2.15;;
75935;SDS011;64614;32.062;34.834;2023-04-03T15:20:51;4.53;;;2.17;;
75935;SDS011;64614;32.062;34.834;2023-04-03T15:23:17;3.97;;;1.83;;
75935;SDS011;64614;32.062;34.834;2023-04-03T15:25:44;5.40;;;2.05;;
75935;SDS011;64614;32.062;34.834;2023-04-03T15:30:44;4.53;;;1.88;;
75935;SDS011;64614;32.062;34.834;2023-04-03T15:33:09;5.13;;;2.10;;
75935;SDS011;64614;32.062;34.834;2023-04-03T15:35:35;5.35;;;2.15;;
75935;SDS011;64614;32.062;34.834;2023-04-03T15:38:01;5.03;;;2.20;;
75935;SDS011;64614;32.062;34.834;2023-04-03T15:40:26;5.38;;;2.28;;
75935;SDS011;64614;32.062;34.834;2023-04-03T15:42:52;6.45;;;2.30;;
75935;SDS011;64614;32.062;34.834;2023-04-03T15:45:18;4.75;;;2.08;;
75935;SDS011;64614;32.062;34.834;2023-04-03T15:47:43;5.13;;;2.30;;
75935;SDS011;64614;32.062;34.834;2023-04-03T15:50:09;5.95;;;2.45;;
75935;SDS011;64614;32.062;34.834;2023-04-03T15:52:36;5.88;;;2.58;;
75935;SDS011;64614;32.062;34.834;2023-04-03T15:55:02;5.72;;;2.50;;
75935;SDS011;64614;32.062;34.834;2023-04-03T15:57:28;6.60;;;2.42;;
75935;SDS011;64614;32.062;34.834;2023-04-03T15:59:54;4.30;;;2.13;;
75935;SDS011;64614;32.062;34.834;2023-04-03T16:02:20;5.30;;;2.33;;
75935;SDS011;64614;32.062;34.834;2023-04-03T16:04:46;5.55;;;2.30;;
75935;SDS011;64614;32.062;34.834;2023-04-03T16:07:12;7.07;;;2.40;;
75935;SDS011;64614;32.062;34.834;2023-04-03T16:09:37;5.45;;;2.28;;
75935;SDS011;64614;32.062;34.834;2023-04-03T16:12:03;5.72;;;2.47;;
75935;SDS011;64614;32.062;34.834;2023-04-03T16:14:29;5.10;;;2.38;;
75935;SDS011;64614;32.062;34.834;2023-04-03T16:16:56;5.25;;;2.47;;
75935;SDS011;64614;32.062;34.834;2023-04-03T16:19:23;4.32;;;2.25;;
75935;SDS011;64614;32.062;34.834;2023-04-03T16:21:48;5.78;;;2.50;;
75935;SDS011;64614;32.062;34.834;2023-04-03T16:24:14;6.40;;;2.40;;
75935;SDS011;64614;32.062;34.834;2023-04-03T16:26:40;5.10;;;2.40;;
75935;SDS011;64614;32.062;34.834;2023-04-03T16:29:06;4.72;;;2.40;;
75935;SDS011;64614;32.062;34.834;2023-04-03T16:31:31;5.20;;;2.55;;
75935;SDS011;64614;32.062;34.834;2023-04-03T16:33:58;7.55;;;2.85;;
75935;SDS011;64614;32.062;34.834;2023-04-03T16:36:25;6.25;;;2.50;;
75935;SDS011;64614;32.062;34.834;2023-04-03T16:38:51;6.00;;;2.53;;
75935;SDS011;64614;32.062;34.834;2023-04-03T16:41:16;5.07;;;2.65;;
75935;SDS011;64614;32.062;34.834;2023-04-03T16:43:42;5.50;;;2.72;;
75935;SDS011;64614;32.062;34.834;2023-04-03T16:46:08;6.43;;;2.83;;
75935;SDS011;64614;32.062;34.834;2023-04-03T16:48:34;6.53;;;2.88;;